Time;durP1;ratioP1;P1;durP2;ratioP2;P2;SDS_P1;SDS_P2;PMS_P1;PMS_P2;Temp;Humidity;BMP_temperature;BMP_pressure;BME280_temperature;BME280_humidity;BME280_pressure;Samples;Min_cycle;Max_cycle;Signal;HPM_P1;HPM_P2
2022/01/31 00:01:09;;;;;;;8.82;2.92;;;;;;;;;;8366347;28;20075;-78
2022/01/31 00:05:14;;;;;;;16.85;4.05;;;;;;;;;;8366331;28;20092;-80
2022/01/31 00:09:17;;;;;;;9.98;3.05;;;;;;;;;;8365782;28;20060;-81
2022/01/31 00:13:21;;;;;;;15.18;3.80;;;;;;;;;;8366014;28;20390;-81
2022/01/31 00:17:24;;;;;;;14.93;3.53;;;;;;;;;;8365954;28;20128;-78
2022/01/31 00:21:29;;;;;;;9.77;3.47;;;;;;;;;;8365299;28;20041;-79
2022/01/31 00:25:32;;;;;;;12.48;3.70;;;;;;;;;;8365274;28;20049;-79
2022/01/31 00:29:35;;;;;;;12.23;3.53;;;;;;;;;;8365187;28;20075;-78
2022/01/31 00:33:37;;;;;;;12.70;3.17;;;;;;;;;;8365429;28;20068;-80
2022/01/31 00:37:41;;;;;;;8.00;2.85;;;;;;;;;;8365370;28;20041;-81
2022/01/31 00:41:44;;;;;;;16.90;3.53;;;;;;;;;;8365045;28;20436;-79
2022/01/31 00:45:58;;;;;;;13.38;3.33;;;;;;;;;;8364860;28;20044;-76
2022/01/31 00:50:06;;;;;;;16.80;3.78;;;;;;;;;;8364574;28;20081;-77
2022/01/31 00:54:10;;;;;;;14.93;2.65;;;;;;;;;;8364555;28;20056;-79
2022/01/31 00:58:13;;;;;;;14.07;3.38;;;;;;;;;;8364753;28;20444;-79
2022/01/31 01:02:15;;;;;;;11.70;3.47;;;;;;;;;;8363996;28;20059;-79
2022/01/31 01:06:18;;;;;;;8.32;3.22;;;;;;;;;;8364495;28;20435;-79
2022/01/31 01:10:22;;;;;;;13.95;3.72;;;;;;;;;;8363554;28;20048;-77
2022/01/31 01:14:24;;;;;;;9.98;3.13;;;;;;;;;;8357526;28;20065;-80
2022/01/31 01:18:27;;;;;;;11.70;3.05;;;;;;;;;;8364147;28;20060;-77
2022/01/31 01:22:29;;;;;;;13.27;3.83;;;;;;;;;;8363644;28;20049;-78
2022/01/31 01:26:33;;;;;;;11.38;4.15;;;;;;;;;;8363969;28;20055;-78
2022/01/31 01:30:36;;;;;;;14.20;3.60;;;;;;;;;;8363402;28;20087;-78
2022/01/31 01:34:39;;;;;;;13.18;3.33;;;;;;;;;;8363385;28;20041;-79
2022/01/31 01:38:41;;;;;;;6.68;2.85;;;;;;;;;;8363331;28;20091;-78
2022/01/31 01:42:45;;;;;;;10.35;3.35;;;;;;;;;;8363601;28;20399;-78
2022/01/31 01:46:48;;;;;;;16.67;4.25;;;;;;;;;;8363596;28;20389;-78
2022/01/31 01:50:51;;;;;;;18.83;3.45;;;;;;;;;;8362867;28;20401;-78
2022/01/31 01:54:53;;;;;;;14.38;4.18;;;;;;;;;;8362872;28;20049;-77
2022/01/31 01:59:04;;;;;;;16.92;3.92;;;;;;;;;;8362833;28;20056;-78
2022/01/31 02:03:06;;;;;;;9.50;2.75;;;;;;;;;;8363028;28;20052;-79
2022/01/31 02:07:12;;;;;;;13.48;3.40;;;;;;;;;;8362753;28;20102;-78
2022/01/31 02:11:14;;;;;;;18.27;3.83;;;;;;;;;;8363319;28;20045;-77
2022/01/31 02:15:23;;;;;;;13.40;3.30;;;;;;;;;;8362783;28;20444;-79
2022/01/31 02:19:25;;;;;;;13.38;4.20;;;;;;;;;;8357889;28;20049;-78
2022/01/31 02:23:29;;;;;;;19.88;3.70;;;;;;;;;;8369069;28;20052;-77
2022/01/31 02:27:34;;;;;;;14.98;3.40;;;;;;;;;;8363073;28;20041;-79
2022/01/31 02:31:36;;;;;;;14.95;3.95;;;;;;;;;;8369248;28;20409;-79
2022/01/31 02:35:39;;;;;;;11.57;3.50;;;;;;;;;;8369169;28;20469;-77
2022/01/31 02:39:43;;;;;;;14.45;3.63;;;;;;;;;;8368511;28;20052;-78
2022/01/31 02:43:49;;;;;;;13.30;3.35;;;;;;;;;;8368798;28;20480;-77
2022/01/31 02:47:55;;;;;;;15.55;3.25;;;;;;;;;;8368134;28;20049;-80
2022/01/31 02:52:01;;;;;;;15.65;3.25;;;;;;;;;;8368684;28;20067;-78
2022/01/31 02:56:06;;;;;;;15.43;3.22;;;;;;;;;;8354538;28;20087;-78
2022/01/31 03:00:11;;;;;;;15.13;4.50;;;;;;;;;;8353074;28;20486;-77
2022/01/31 03:04:14;;;;;;;13.00;3.53;;;;;;;;;;8352563;28;20162;-80
2022/01/31 03:08:16;;;;;;;15.20;3.83;;;;;;;;;;8349898;28;20049;-77
2022/01/31 03:12:21;;;;;;;11.55;3.22;;;;;;;;;;8358392;28;20049;-78
2022/01/31 03:16:24;;;;;;;9.68;3.38;;;;;;;;;;8357852;28;20124;-78
2022/01/31 03:20:27;;;;;;;13.15;3.53;;;;;;;;;;8348741;28;20466;-79
2022/01/31 03:24:29;;;;;;;11.77;3.58;;;;;;;;;;8346228;28;20046;-76
2022/01/31 03:28:34;;;;;;;12.15;3.40;;;;;;;;;;8348997;28;20045;-79
2022/01/31 03:32:36;;;;;;;15.40;3.45;;;;;;;;;;8351282;28;20052;-76
2022/01/31 03:36:39;;;;;;;14.70;3.65;;;;;;;;;;8343116;28;20041;-76
2022/01/31 03:40:41;;;;;;;11.60;3.60;;;;;;;;;;8355473;28;20048;-79
2022/01/31 03:44:46;;;;;;;11.13;3.45;;;;;;;;;;8360697;28;20033;-79
2022/01/31 03:48:48;;;;;;;11.60;3.45;;;;;;;;;;8356353;28;20075;-82
2022/01/31 03:52:53;;;;;;;16.10;3.30;;;;;;;;;;8357498;28;20041;-78
2022/01/31 03:56:55;;;;;;;13.07;3.47;;;;;;;;;;8366203;28;20123;-76
2022/01/31 04:00:59;;;;;;;15.00;3.50;;;;;;;;;;8366518;28;20110;-77
2022/01/31 04:05:02;;;;;;;13.50;3.80;;;;;;;;;;8366410;28;20067;-77
2022/01/31 04:09:04;;;;;;;15.25;4.03;;;;;;;;;;8365802;28;20044;-76
2022/01/31 04:13:07;;;;;;;16.20;4.35;;;;;;;;;;8365640;28;20056;-76
2022/01/31 04:17:12;;;;;;;7.40;3.63;;;;;;;;;;8365688;28;20178;-76
2022/01/31 04:21:14;;;;;;;17.30;4.78;;;;;;;;;;8338381;28;20056;-75
2022/01/31 04:25:28;;;;;;;21.40;4.38;;;;;;;;;;8365349;28;20053;-76
2022/01/31 04:29:32;;;;;;;12.35;4.28;;;;;;;;;;8365021;28;20439;-78
2022/01/31 04:33:36;;;;;;;12.07;3.50;;;;;;;;;;8359645;28;20045;-77
2022/01/31 04:37:39;;;;;;;16.02;3.83;;;;;;;;;;8364926;28;20048;-77
2022/01/31 04:41:42;;;;;;;12.20;4.60;;;;;;;;;;8363697;28;20049;-76
2022/01/31 04:45:48;;;;;;;10.73;4.32;;;;;;;;;;8363971;28;20075;-77
2022/01/31 04:49:52;;;;;;;18.73;5.13;;;;;;;;;;8358774;28;20061;-76
2022/01/31 04:53:54;;;;;;;14.35;5.45;;;;;;;;;;8362907;28;20049;-79
2022/01/31 04:57:58;;;;;;;9.48;3.63;;;;;;;;;;8353502;28;20056;-76
2022/01/31 05:02:00;;;;;;;22.75;6.72;;;;;;;;;;8351930;28;20499;-76
2022/01/31 05:06:05;;;;;;;20.30;5.22;;;;;;;;;;8355741;28;20053;-76
2022/01/31 05:10:08;;;;;;;14.20;4.28;;;;;;;;;;8358287;28;20128;-76
2022/01/31 05:14:11;;;;;;;13.20;4.70;;;;;;;;;;8362252;28;20045;-77
2022/01/31 05:18:13;;;;;;;18.48;5.93;;;;;;;;;;8361344;28;20040;-77
2022/01/31 05:22:18;;;;;;;17.98;5.97;;;;;;;;;;8363963;28;20457;-77
2022/01/31 05:26:20;;;;;;;16.67;5.40;;;;;;;;;;8363970;28;20048;-76
2022/01/31 05:30:23;;;;;;;15.25;5.05;;;;;;;;;;8363818;28;20073;-77
2022/01/31 05:34:25;;;;;;;24.77;6.32;;;;;;;;;;8363309;28;20041;-77
2022/01/31 05:38:34;;;;;;;19.40;5.47;;;;;;;;;;8363205;28;20052;-76
2022/01/31 05:42:36;;;;;;;17.15;4.40;;;;;;;;;;8363514;28;20102;-77
2022/01/31 05:46:39;;;;;;;17.25;5.63;;;;;;;;;;8363248;28;20408;-76
2022/01/31 05:50:42;;;;;;;18.67;5.72;;;;;;;;;;8362749;28;20049;-76
2022/01/31 05:54:47;;;;;;;17.83;6.03;;;;;;;;;;8366633;28;20046;-76
2022/01/31 05:58:50;;;;;;;15.60;5.30;;;;;;;;;;8370322;28;20440;-77
2022/01/31 06:02:59;;;;;;;11.43;4.80;;;;;;;;;;8369879;28;20127;-77
2022/01/31 06:07:02;;;;;;;21.15;5.85;;;;;;;;;;8364608;28;20488;-77
2022/01/31 06:11:06;;;;;;;18.00;5.60;;;;;;;;;;8370103;28;20106;-75
2022/01/31 06:15:09;;;;;;;16.52;5.88;;;;;;;;;;8363161;28;20060;-76
2022/01/31 06:19:12;;;;;;;20.70;5.22;;;;;;;;;;8369224;28;20049;-77
2022/01/31 06:23:14;;;;;;;23.70;6.75;;;;;;;;;;8369123;28;20045;-77
2022/01/31 06:27:19;;;;;;;26.17;8.90;;;;;;;;;;8368892;28;20133;-76
2022/01/31 06:31:21;;;;;;;26.77;6.28;;;;;;;;;;8368764;28;20076;-77
2022/01/31 06:35:27;;;;;;;12.57;4.65;;;;;;;;;;8368755;28;20132;-77
2022/01/31 06:39:30;;;;;;;18.80;5.50;;;;;;;;;;8368631;28;20401;-75
2022/01/31 06:43:34;;;;;;;25.80;6.45;;;;;;;;;;8368866;28;20477;-77
2022/01/31 06:47:37;;;;;;;13.35;5.03;;;;;;;;;;8368077;28;20053;-77
2022/01/31 06:51:41;;;;;;;14.35;4.40;;;;;;;;;;8368663;28;20408;-75
2022/01/31 06:55:44;;;;;;;14.02;4.72;;;;;;;;;;8368051;28;20051;-77
2022/01/31 06:59:48;;;;;;;18.80;4.93;;;;;;;;;;8368402;28;20041;-78
2022/01/31 07:03:51;;;;;;;8.75;4.10;;;;;;;;;;8367752;28;20081;-78
2022/01/31 07:07:54;;;;;;;18.75;4.90;;;;;;;;;;8367043;28;20473;-77
2022/01/31 07:12:00;;;;;;;12.48;4.78;;;;;;;;;;8367707;28;20124;-75
2022/01/31 07:16:09;;;;;;;14.05;4.40;;;;;;;;;;8362329;28;20044;-78
2022/01/31 07:20:20;;;;;;;15.25;3.92;;;;;;;;;;8361934;28;20489;-77
2022/01/31 07:24:30;;;;;;;14.00;4.45;;;;;;;;;;8367155;28;20045;-76
2022/01/31 07:28:33;;;;;;;13.48;3.78;;;;;;;;;;8367201;28;20132;-77
2022/01/31 07:32:41;;;;;;;18.52;4.82;;;;;;;;;;8366984;28;20044;-76
2022/01/31 07:36:45;;;;;;;18.58;4.90;;;;;;;;;;8367310;28;20409;-76
2022/01/31 07:40:48;;;;;;;12.07;3.95;;;;;;;;;;8367765;28;20128;-77
2022/01/31 07:44:53;;;;;;;12.00;3.65;;;;;;;;;;8366638;28;20507;-77
2022/01/31 07:48:57;;;;;;;24.52;4.93;;;;;;;;;;8373722;28;20037;-76
2022/01/31 07:53:01;;;;;;;16.10;4.18;;;;;;;;;;8376606;28;20041;-76
2022/01/31 07:57:04;;;;;;;18.30;5.60;;;;;;;;;;8372404;28;20032;-76
2022/01/31 08:01:08;;;;;;;15.48;4.45;;;;;;;;;;8381494;28;20068;-76
2022/01/31 08:05:13;;;;;;;19.20;6.95;;;;;;;;;;8375031;28;20048;-77
2022/01/31 08:09:16;;;;;;;12.60;4.55;;;;;;;;;;8366367;28;20469;-76
2022/01/31 08:13:19;;;;;;;14.45;3.63;;;;;;;;;;8365694;28;20045;-78
2022/01/31 08:17:22;;;;;;;15.77;4.10;;;;;;;;;;8365019;28;20041;-79
2022/01/31 08:21:27;;;;;;;16.77;4.65;;;;;;;;;;8365887;28;20479;-76
2022/01/31 08:25:35;;;;;;;22.05;4.40;;;;;;;;;;8365347;28;20097;-77
2022/01/31 08:29:39;;;;;;;13.65;4.72;;;;;;;;;;8365262;28;20119;-76
2022/01/31 08:33:48;;;;;;;13.63;4.63;;;;;;;;;;8365509;28;20492;-77
2022/01/31 08:37:53;;;;;;;14.85;4.57;;;;;;;;;;8365407;28;20485;-78
2022/01/31 08:41:56;;;;;;;18.23;4.57;;;;;;;;;;8364692;28;20196;-76
2022/01/31 08:45:59;;;;;;;15.07;3.95;;;;;;;;;;8365173;28;20577;-77
2022/01/31 08:50:02;;;;;;;16.40;6.43;;;;;;;;;;8364323;28;20053;-76
2022/01/31 08:54:07;;;;;;;21.38;5.88;;;;;;;;;;8364444;28;20048;-77
2022/01/31 08:58:10;;;;;;;21.17;4.88;;;;;;;;;;8364251;28;20055;-74
2022/01/31 09:02:16;;;;;;;13.15;4.25;;;;;;;;;;8364078;28;20436;-76
2022/01/31 09:06:21;;;;;;;15.48;4.82;;;;;;;;;;8364206;28;20049;-77
2022/01/31 09:10:25;;;;;;;18.42;5.55;;;;;;;;;;8364704;28;20140;-76
2022/01/31 09:14:28;;;;;;;14.80;4.07;;;;;;;;;;8364261;28;20115;-76
2022/01/31 09:18:32;;;;;;;15.25;4.28;;;;;;;;;;8364035;28;20049;-77
2022/01/31 09:22:35;;;;;;;15.00;4.20;;;;;;;;;;8357861;28;20045;-77
2022/01/31 09:26:39;;;;;;;19.60;4.65;;;;;;;;;;8363925;28;20485;-77
2022/01/31 09:30:44;;;;;;;14.85;4.60;;;;;;;;;;8363631;28;20485;-77
2022/01/31 09:34:47;;;;;;;18.17;5.45;;;;;;;;;;8363404;28;20060;-77
2022/01/31 09:38:51;;;;;;;24.13;5.70;;;;;;;;;;8364045;28;20052;-76
2022/01/31 09:43:11;;;;;;;20.02;6.07;;;;;;;;;;8363828;28;20397;-77
2022/01/31 09:48:30;;;;;;;10.45;4.30;;;;;;;;;;8363408;28;20465;-76
2022/01/31 09:51:51;;;;;;;18.17;5.43;;;;;;;;;;8363464;28;20110;-76
2022/01/31 09:55:54;;;;;;;20.02;4.40;;;;;;;;;;8363207;28;20052;-77
2022/01/31 09:59:58;;;;;;;17.33;5.55;;;;;;;;;;8362928;28;20053;-77
2022/01/31 10:04:07;;;;;;;19.20;6.13;;;;;;;;;;8362874;28;20045;-77
2022/01/31 10:08:16;;;;;;;16.52;5.38;;;;;;;;;;8362635;28;20056;-76
2022/01/31 10:12:29;;;;;;;17.27;5.68;;;;;;;;;;8362956;28;20072;-77
2022/01/31 10:16:42;;;;;;;33.67;6.85;;;;;;;;;;8362855;28;20052;-77
2022/01/31 10:20:46;;;;;;;21.58;5.95;;;;;;;;;;8362696;28;20041;-77
2022/01/31 10:24:51;;;;;;;21.58;5.32;;;;;;;;;;8362463;28;20056;-77
2022/01/31 10:29:09;;;;;;;17.67;5.32;;;;;;;;;;8362516;28;20053;-77
2022/01/31 10:33:18;;;;;;;16.85;5.50;;;;;;;;;;8344716;28;20056;-77
2022/01/31 10:37:24;;;;;;;14.50;4.53;;;;;;;;;;8362604;28;20093;-77
2022/01/31 10:46:31;;;;;;;23.08;4.43;;;;;;;;;;8368977;28;20065;-76
2022/01/31 10:51:02;;;;;;;15.60;5.85;;;;;;;;;;8368147;28;20052;-77
2022/01/31 10:55:15;;;;;;;19.98;6.30;;;;;;;;;;8365541;28;20056;-77
2022/01/31 10:59:20;;;;;;;21.65;5.32;;;;;;;;;;8368143;28;20517;-77
2022/01/31 11:03:32;;;;;;;18.85;6.10;;;;;;;;;;8367834;28;20087;-77
2022/01/31 11:07:37;;;;;;;19.00;5.85;;;;;;;;;;8367758;28;20052;-76
2022/01/31 11:11:42;;;;;;;15.30;5.07;;;;;;;;;;8367651;28;20041;-77
2022/01/31 11:15:46;;;;;;;20.05;5.07;;;;;;;;;;8367727;28;20052;-77
2022/01/31 11:19:56;;;;;;;19.48;5.18;;;;;;;;;;8367850;28;20413;-77
2022/01/31 11:24:03;;;;;;;17.88;5.55;;;;;;;;;;8367370;28;20053;-76
2022/01/31 11:28:07;;;;;;;17.20;6.13;;;;;;;;;;8367701;28;20049;-77
2022/01/31 11:32:10;;;;;;;25.15;6.35;;;;;;;;;;8367135;28;20782;-77
2022/01/31 11:36:13;;;;;;;15.73;4.95;;;;;;;;;;8366943;28;20052;-77
2022/01/31 11:40:19;;;;;;;18.13;5.30;;;;;;;;;;8366894;28;20045;-75
2022/01/31 11:44:32;;;;;;;15.93;6.20;;;;;;;;;;8367142;28;20052;-76
2022/01/31 11:48:38;;;;;;;25.38;6.47;;;;;;;;;;8343240;28;20492;-76
2022/01/31 11:52:45;;;;;;;18.38;5.63;;;;;;;;;;8366042;28;20052;-75
2022/01/31 11:56:53;;;;;;;21.38;7.45;;;;;;;;;;8366241;28;20106;-77
2022/01/31 12:00:56;;;;;;;16.00;4.80;;;;;;;;;;8366599;28;20056;-76
2022/01/31 12:05:04;;;;;;;16.30;4.70;;;;;;;;;;8366840;28;20049;-76
2022/01/31 12:09:12;;;;;;;18.77;4.60;;;;;;;;;;8365854;28;20040;-76
2022/01/31 12:13:40;;;;;;;16.75;4.53;;;;;;;;;;8366129;28;20056;-77
2022/01/31 12:18:01;;;;;;;18.60;5.53;;;;;;;;;;8366038;28;20049;-77
2022/01/31 12:22:05;;;;;;;27.90;7.47;;;;;;;;;;8361558;28;20412;-77
2022/01/31 12:26:30;;;;;;;16.83;5.32;;;;;;;;;;8365236;28;20087;-76
2022/01/31 12:30:37;;;;;;;24.63;7.38;;;;;;;;;;8365063;28;20178;-77
2022/01/31 12:34:44;;;;;;;20.48;5.53;;;;;;;;;;8365503;28;20182;-76
2022/01/31 12:38:47;;;;;;;17.40;6.75;;;;;;;;;;8365250;28;20049;-76
2022/01/31 12:47:17;;;;;;;18.88;5.90;;;;;;;;;;8357481;28;20489;-76
2022/01/31 12:51:20;;;;;;;16.55;4.45;;;;;;;;;;8364538;28;20401;-76
2022/01/31 12:55:27;;;;;;;18.63;5.80;;;;;;;;;;8364815;28;20083;-76
2022/01/31 12:59:30;;;;;;;15.02;5.50;;;;;;;;;;8364698;28;20535;-76
2022/01/31 13:03:37;;;;;;;20.10;6.20;;;;;;;;;;8363913;28;20041;-76
2022/01/31 13:07:40;;;;;;;20.35;6.18;;;;;;;;;;8364340;28;20489;-77
2022/01/31 13:11:46;;;;;;;21.05;6.43;;;;;;;;;;8337946;28;20098;-77
2022/01/31 13:15:54;;;;;;;19.63;5.63;;;;;;;;;;8578004;22;20055;-70
2022/01/31 13:20:03;;;;;;;22.58;6.32;;;;;;;;;;8329105;28;20061;-71
2022/01/31 13:24:08;;;;;;;23.95;5.55;;;;;;;;;;8330955;28;20145;-71
2022/01/31 13:28:11;;;;;;;24.80;5.82;;;;;;;;;;8330384;28;20493;-71
2022/01/31 13:32:33;;;;;;;20.23;6.85;;;;;;;;;;8327856;28;22079;-71
2022/01/31 13:36:37;;;;;;;21.42;6.95;;;;;;;;;;8329091;28;20195;-70
2022/01/31 13:40:44;;;;;;;20.67;7.13;;;;;;;;;;8325755;28;20103;-70
2022/01/31 13:44:51;;;;;;;23.80;6.78;;;;;;;;;;8330865;28;20127;-70
2022/01/31 13:49:11;;;;;;;24.80;5.72;;;;;;;;;;8322923;28;20099;-71
2022/01/31 13:53:20;;;;;;;24.63;8.18;;;;;;;;;;8324833;28;20050;-72
2022/01/31 13:57:26;;;;;;;26.10;9.18;;;;;;;;;;8325998;28;20137;-70
2022/01/31 14:01:32;;;;;;;19.60;6.50;;;;;;;;;;8310342;28;20057;-70
2022/01/31 14:05:37;;;;;;;19.30;8.85;;;;;;;;;;8330455;28;20412;-70
2022/01/31 14:09:41;;;;;;;19.98;6.15;;;;;;;;;;8330203;28;20128;-70
2022/01/31 14:13:48;;;;;;;28.42;9.95;;;;;;;;;;8329714;28;20485;-71
2022/01/31 14:17:52;;;;;;;34.35;11.55;;;;;;;;;;8335504;28;20072;-70
2022/01/31 14:22:08;;;;;;;46.67;15.65;;;;;;;;;;8332269;28;20136;-70
2022/01/31 14:31:08;;;;;;;74.07;26.52;;;;;;;;;;8221004;27;7911030;-71
2022/01/31 14:35:29;;;;;;;73.00;23.50;;;;;;;;;;8469605;28;20039;-71
2022/01/31 14:40:03;;;;;;;68.88;25.85;;;;;;;;;;8459691;28;20410;-71
2022/01/31 14:48:51;;;;;;;50.42;21.80;;;;;;;;;;8491575;28;20086;-71
2022/01/31 14:53:21;;;;;;;63.30;23.38;;;;;;;;;;8464979;28;20574;-71
2022/01/31 14:58:00;;;;;;;75.53;28.15;;;;;;;;;;8470331;28;20039;-71
2022/01/31 15:02:13;;;;;;;51.05;20.58;;;;;;;;;;8484337;28;20051;-71
2022/01/31 15:06:39;;;;;;;54.95;20.00;;;;;;;;;;8458537;28;20100;-72
2022/01/31 15:10:58;;;;;;;112.10;41.53;;;;;;;;;;8458697;28;20044;-72
2022/01/31 15:15:21;;;;;;;57.33;20.02;;;;;;;;;;8474891;28;20043;-72
2022/01/31 15:19:49;;;;;;;115.25;34.90;;;;;;;;;;8464650;28;20149;-72
2022/01/31 15:24:10;;;;;;;76.90;26.38;;;;;;;;;;8469659;28;20558;-71
2022/01/31 15:28:29;;;;;;;66.95;26.70;;;;;;;;;;8448324;28;20057;-71
2022/01/31 15:32:57;;;;;;;119.63;34.70;;;;;;;;;;8423491;28;20055;-71
2022/01/31 15:37:15;;;;;;;129.40;34.47;;;;;;;;;;8435708;28;20541;-71
2022/01/31 15:41:24;;;;;;;161.30;45.95;;;;;;;;;;8413144;28;20446;-72
2022/01/31 15:45:28;;;;;;;82.78;26.48;;;;;;;;;;8411768;28;20099;-71
2022/01/31 15:49:31;;;;;;;56.83;19.02;;;;;;;;;;8392192;28;20048;-72
2022/01/31 15:53:34;;;;;;;58.45;19.98;;;;;;;;;;8401651;28;20048;-72
2022/01/31 15:57:41;;;;;;;162.57;51.20;;;;;;;;;;8403540;28;20040;-72
2022/01/31 16:01:46;;;;;;;38.42;13.65;;;;;;;;;;8401256;28;20195;-74
2022/01/31 16:05:49;;;;;;;51.17;16.50;;;;;;;;;;8400931;28;20472;-71
2022/01/31 16:09:52;;;;;;;46.88;16.88;;;;;;;;;;8401197;28;20048;-71
2022/01/31 16:13:59;;;;;;;57.17;20.42;;;;;;;;;;8403259;28;20472;-71
2022/01/31 16:18:03;;;;;;;87.60;23.52;;;;;;;;;;8400960;28;20049;-71
2022/01/31 16:22:05;;;;;;;66.63;21.17;;;;;;;;;;8400677;28;20150;-72
2022/01/31 16:26:08;;;;;;;56.58;18.33;;;;;;;;;;8400397;28;20079;-71
2022/01/31 16:30:15;;;;;;;112.28;33.50;;;;;;;;;;8400022;28;20130;-71
2022/01/31 16:34:18;;;;;;;130.95;36.45;;;;;;;;;;8400222;28;20094;-72
2022/01/31 16:38:21;;;;;;;90.07;23.17;;;;;;;;;;8399700;28;20052;-72
2022/01/31 16:42:25;;;;;;;73.20;24.95;;;;;;;;;;8399957;28;20052;-72
2022/01/31 16:46:39;;;;;;;86.93;28.30;;;;;;;;;;8399705;28;20048;-72
2022/01/31 16:50:44;;;;;;;68.95;23.92;;;;;;;;;;8382036;28;20049;-71
2022/01/31 16:54:47;;;;;;;63.03;21.17;;;;;;;;;;8399527;28;20052;-72
2022/01/31 16:58:51;;;;;;;57.38;17.30;;;;;;;;;;8399528;28;20090;-71
2022/01/31 17:02:57;;;;;;;52.33;17.50;;;;;;;;;;8400184;28;20139;-71
2022/01/31 17:07:22;;;;;;;50.13;17.80;;;;;;;;;;8398910;28;20067;-71
2022/01/31 17:11:26;;;;;;;60.90;18.35;;;;;;;;;;8399423;28;20554;-71
2022/01/31 17:15:29;;;;;;;56.20;18.77;;;;;;;;;;8398903;28;20062;-71
2022/01/31 17:19:35;;;;;;;59.92;18.15;;;;;;;;;;8398684;28;20041;-71
2022/01/31 17:23:38;;;;;;;77.45;25.60;;;;;;;;;;8398584;28;20045;-72
2022/01/31 17:27:41;;;;;;;79.03;30.02;;;;;;;;;;8412489;28;20059;-71
2022/01/31 17:31:44;;;;;;;92.60;32.65;;;;;;;;;;8420626;28;20048;-78
2022/01/31 17:35:49;;;;;;;82.85;29.77;;;;;;;;;;8412585;28;20505;-72
2022/01/31 17:39:54;;;;;;;70.78;25.02;;;;;;;;;;8403293;28;20462;-73
2022/01/31 17:44:04;;;;;;;188.57;48.45;;;;;;;;;;8422924;28;20098;-73
2022/01/31 17:48:11;;;;;;;147.63;35.85;;;;;;;;;;8397936;28;20044;-73
2022/01/31 17:52:17;;;;;;;110.22;28.90;;;;;;;;;;8421084;28;20077;-78
2022/01/31 17:56:21;;;;;;;121.63;35.05;;;;;;;;;;8430177;28;20130;-71
2022/01/31 18:00:24;;;;;;;135.80;33.35;;;;;;;;;;8430058;28;20079;-73
2022/01/31 18:04:28;;;;;;;105.13;26.95;;;;;;;;;;8429351;28;20181;-72
2022/01/31 18:08:34;;;;;;;124.38;30.77;;;;;;;;;;8429749;28;20047;-71
2022/01/31 18:12:39;;;;;;;81.78;23.20;;;;;;;;;;8397868;28;20131;-71
2022/01/31 18:16:42;;;;;;;92.20;26.70;;;;;;;;;;8396983;28;20139;-71
2022/01/31 18:20:47;;;;;;;87.55;30.35;;;;;;;;;;8397540;28;20404;-70
2022/01/31 18:24:54;;;;;;;127.43;34.92;;;;;;;;;;8397683;28;20041;-73
2022/01/31 18:28:57;;;;;;;127.57;36.38;;;;;;;;;;8396544;28;20060;-71
2022/01/31 18:33:03;;;;;;;147.68;36.47;;;;;;;;;;8397616;28;20045;-71
2022/01/31 18:37:18;;;;;;;74.80;20.03;;;;;;;;;;8396459;28;20044;-75
2022/01/31 18:41:27;;;;;;;57.47;18.60;;;;;;;;;;8396643;28;20160;-73
2022/01/31 18:45:49;;;;;;;60.50;22.23;;;;;;;;;;8396916;28;20051;-73
2022/01/31 18:49:56;;;;;;;92.35;26.02;;;;;;;;;;8409805;28;20048;-70
2022/01/31 18:54:14;;;;;;;184.30;41.85;;;;;;;;;;8423175;28;20052;-72
2022/01/31 18:58:25;;;;;;;87.85;24.95;;;;;;;;;;8422281;28;20050;-71
2022/01/31 19:02:36;;;;;;;242.73;51.65;;;;;;;;;;8423300;28;20061;-70
2022/01/31 19:06:49;;;;;;;146.00;40.20;;;;;;;;;;8419946;28;20552;-71
2022/01/31 19:11:08;;;;;;;182.05;47.13;;;;;;;;;;8422906;28;20582;-71
2022/01/31 19:24:24;;;;;;;142.63;42.17;;;;;;;;;;8427186;28;20406;-71
2022/01/31 19:28:40;;;;;;;76.97;23.23;;;;;;;;;;8429371;28;20472;-71
2022/01/31 19:33:11;;;;;;;67.13;21.85;;;;;;;;;;8428410;28;20135;-71
2022/01/31 19:37:24;;;;;;;110.22;31.67;;;;;;;;;;8426033;28;20048;-71
2022/01/31 19:46:06;;;;;;;45.40;16.13;;;;;;;;;;8428723;28;20046;-70
2022/01/31 19:50:17;;;;;;;50.85;17.98;;;;;;;;;;8427863;28;20047;-71
2022/01/31 19:54:23;;;;;;;51.95;18.00;;;;;;;;;;8407573;28;20048;-71
2022/01/31 19:59:00;;;;;;;53.47;20.13;;;;;;;;;;8432105;28;20048;-70
2022/01/31 20:03:06;;;;;;;57.00;21.58;;;;;;;;;;8426029;28;20143;-70
2022/01/31 20:07:13;;;;;;;64.85;23.55;;;;;;;;;;8428873;28;20133;-71
2022/01/31 20:11:25;;;;;;;58.30;20.27;;;;;;;;;;8430548;28;20138;-71
2022/01/31 20:15:31;;;;;;;52.65;20.73;;;;;;;;;;8423044;28;20040;-70
2022/01/31 20:19:42;;;;;;;64.93;24.52;;;;;;;;;;8430839;28;20122;-70
2022/01/31 20:23:48;;;;;;;55.45;23.23;;;;;;;;;;8428554;28;20051;-70
2022/01/31 20:27:56;;;;;;;58.83;22.35;;;;;;;;;;8431461;28;20079;-70
2022/01/31 20:37:37;;;;;;;96.13;32.08;;;;;;;;;;8426364;28;20079;-70
2022/01/31 20:41:42;;;;;;;104.18;32.92;;;;;;;;;;8428931;28;20055;-71
2022/01/31 20:45:45;;;;;;;103.75;35.83;;;;;;;;;;8429023;28;20051;-71
2022/01/31 20:49:48;;;;;;;103.90;35.05;;;;;;;;;;8427684;28;20044;-71
2022/01/31 20:53:51;;;;;;;81.25;31.13;;;;;;;;;;8426274;28;20051;-70
2022/01/31 20:57:59;;;;;;;120.47;40.42;;;;;;;;;;8420273;28;20044;-70
2022/01/31 21:02:05;;;;;;;77.75;25.75;;;;;;;;;;8419010;28;20490;-72
2022/01/31 21:06:14;;;;;;;89.60;32.22;;;;;;;;;;8423284;28;20059;-72
2022/01/31 21:10:20;;;;;;;72.85;25.42;;;;;;;;;;8426015;28;20051;-77
2022/01/31 21:14:51;;;;;;;67.05;24.33;;;;;;;;;;8424792;28;20598;-71
2022/01/31 21:19:23;;;;;;;60.83;20.42;;;;;;;;;;8426259;28;20047;-71
2022/01/31 21:23:33;;;;;;;59.60;19.50;;;;;;;;;;8427810;28;20130;-71
2022/01/31 21:27:49;;;;;;;61.42;18.08;;;;;;;;;;8426785;28;20135;-71
2022/01/31 21:32:02;;;;;;;44.40;16.23;;;;;;;;;;8425157;28;20044;-71
2022/01/31 21:36:09;;;;;;;58.92;20.50;;;;;;;;;;8427194;28;20068;-70
2022/01/31 21:40:14;;;;;;;60.92;17.27;;;;;;;;;;8419891;28;20090;-70
2022/01/31 21:44:17;;;;;;;95.38;23.58;;;;;;;;;;8424758;28;20044;-71
2022/01/31 21:48:22;;;;;;;84.15;22.85;;;;;;;;;;8422173;28;20048;-70
2022/01/31 21:52:27;;;;;;;81.03;23.65;;;;;;;;;;8422022;28;20076;-71
2022/01/31 21:56:30;;;;;;;77.95;25.27;;;;;;;;;;8421022;28;20048;-71
2022/01/31 22:00:33;;;;;;;71.70;24.95;;;;;;;;;;8416320;28;20468;-71
2022/01/31 22:04:38;;;;;;;92.90;25.48;;;;;;;;;;8426907;28;20633;-70
2022/01/31 22:08:45;;;;;;;78.30;25.20;;;;;;;;;;8416037;28;20064;-71
2022/01/31 22:12:48;;;;;;;87.70;26.73;;;;;;;;;;8410072;28;20487;-71
2022/01/31 22:16:51;;;;;;;77.50;27.48;;;;;;;;;;8421285;28;20044;-71
2022/01/31 22:20:55;;;;;;;87.60;28.45;;;;;;;;;;8400618;28;20047;-74
2022/01/31 22:24:59;;;;;;;96.22;31.60;;;;;;;;;;8426405;28;20044;-70
2022/01/31 22:29:02;;;;;;;108.93;30.63;;;;;;;;;;8402442;28;20056;-70
2022/01/31 22:33:06;;;;;;;103.47;30.13;;;;;;;;;;8420444;28;20499;-71
2022/01/31 22:37:11;;;;;;;72.72;27.20;;;;;;;;;;8425077;28;20047;-70
2022/01/31 22:41:14;;;;;;;81.57;28.83;;;;;;;;;;8415199;28;20055;-70
2022/01/31 22:45:17;;;;;;;78.82;28.25;;;;;;;;;;8422424;28;20240;-70
2022/01/31 22:49:19;;;;;;;98.43;31.70;;;;;;;;;;8422127;28;20064;-70
2022/01/31 22:53:23;;;;;;;102.85;32.60;;;;;;;;;;8426082;28;20075;-70
2022/01/31 22:57:26;;;;;;;101.35;34.08;;;;;;;;;;8433375;28;20625;-70
2022/01/31 23:01:29;;;;;;;97.50;32.70;;;;;;;;;;8426152;28;20059;-70
2022/01/31 23:05:32;;;;;;;92.32;30.85;;;;;;;;;;8426806;28;20044;-70
2022/01/31 23:09:36;;;;;;;95.45;28.77;;;;;;;;;;8423149;28;20067;-70
2022/01/31 23:13:43;;;;;;;71.45;25.83;;;;;;;;;;8425352;28;20063;-70
2022/01/31 23:17:53;;;;;;;72.25;27.33;;;;;;;;;;8424653;28;20051;-77
2022/01/31 23:22:21;;;;;;;100.28;28.38;;;;;;;;;;8428559;28;20460;-74
